Portada
METAR-TAF:

METAR-TAF

Aeroports :

Changchun, Xina

latitud: 43-54N, longitud: 125-13E, altitud: 238 m

Observació

L'informe es va fer fa 21 minuts, a les 11:00 UTC
Vent 2 kt amb direcció variable
Temperatura 12°C
Humitat 76%
Pressió 997 hPa
Visibilitat 10 km o més
Cel ennuvolat a una alçada de 3000 ft

METAR: ZYCC 211100Z VRB01MPS 9999 BKN030 12/08 Q0997 NOSIG

Hora: 19:21 (11:21 UTC)

Pronòstic

L'informe es va fer fa 8 hores i 5 minuts, a les 03:16 UTC
Pronòstic vàlid del 21 a les 06 UTC al 22 a les 06 UTC
Vent 14 kt del Oest amb ràfegues de 27 kt
Visibilitat: 6000 m
Cel ennuvolat a una alçada de 3000 ft

TAF: ZYCC 210316Z 2106/2206 27007G14MPS 6000 BKN030 TX21/2205Z TN09/2121Z

Observacions i pronòstics meteorològics de més de 4000 aeroports (METAR i TAF).

Les estacions disponibles són els punts grocs i vermells al mapa.

Posi el ratolí al punt desitjat per veure el nom de l'estació.

Feu clic per veure les observacions i els pronòstics meteorològics.

Per canviar el mapa: feu clic els botons verds amb una creu de color negre per apropar; al botó verd amb un guió per allunyar la imatge; o en les fletxes verdes per a mapes adjacents.


METAR-TAF: